Coffee Creek, Montana
Current Conditions -  °F | °C
As of 3:54 AM on Thursday 23 Oct 2014 (Local Time) from KLWT Reporting Station
Clear Clear  
Wind Chill: 53°   Ceiling: Unl
Heat Index: 53°   Visibility: 10mi
Dew Point: 27°   Wind: 18mph
Humidity: 37%   Direction: 220°SW
Pressure: 29.87"   Gusts: NA
Location:  47.34°N, 110.08°W
Report Text: KLWT 230954Z AUTO 22016KT 10SM CLR 12/M03 A2987 RMK AO2 PK WND 21027/0902 SLP096 T01171028
Loading
Personal Weather Stations






























Interactive Weather Map
Tropical Storm Tracking
New forecast layout! Learn more

10-Day Weather Forecast

Advertisements
Track Severe Weather on mobile